createdAt,value
2023-04-02T00:02:22.012Z,63.78
2023-04-02T00:05:34.857Z,62.92
2023-04-02T00:08:41.300Z,63.65
2023-04-02T00:11:45.018Z,62.84
2023-04-02T00:14:49.884Z,64.09
2023-04-02T00:17:52.349Z,63.93
2023-04-02T00:21:25.115Z,63.25
2023-04-02T00:24:27.666Z,64.19
2023-04-02T00:27:31.080Z,64.69
2023-04-02T00:30:33.549Z,64.41
2023-04-02T00:33:36.115Z,64.15
2023-04-02T00:36:38.557Z,64.89
2023-04-02T00:39:41.638Z,64.79
2023-04-02T00:42:44.945Z,64.75
2023-04-02T00:45:51.169Z,63.81
2023-04-02T00:48:59.381Z,63.79
2023-04-02T00:52:06.725Z,63.17
2023-04-02T00:55:18.025Z,63.50
2023-04-02T00:58:27.323Z,63.41
2023-04-02T01:01:36.696Z,63.78
2023-04-02T01:04:39.330Z,64.30
2023-04-02T01:08:10.705Z,63.76
2023-04-02T01:11:14.158Z,63.60
2023-04-02T01:14:39.303Z,63.95
2023-04-02T01:18:14.369Z,63.91
2023-04-02T01:21:42.253Z,63.55
2023-04-02T01:24:44.664Z,63.18
2023-04-02T01:28:10.237Z,64.18
2023-04-02T01:31:12.674Z,63.21
2023-04-02T01:34:17.895Z,63.79
2023-04-02T01:37:50.675Z,63.19
2023-04-02T01:40:56.422Z,63.37
2023-04-02T01:44:03.343Z,62.41
2023-04-02T01:47:08.494Z,62.03
2023-04-02T01:50:22.014Z,62.61
2023-04-02T01:53:26.001Z,63.23
2023-04-02T01:56:28.400Z,62.90
2023-04-02T01:59:33.374Z,63.15
2023-04-02T02:02:38.116Z,62.02
2023-04-02T02:05:41.114Z,62.45
2023-04-02T02:08:51.978Z,63.12
2023-04-02T02:11:54.651Z,62.99
2023-04-02T02:14:57.105Z,63.19
2023-04-02T02:18:03.248Z,62.89
2023-04-02T02:21:05.918Z,63.40
2023-04-02T02:24:24.904Z,63.20
2023-04-02T02:27:44.170Z,63.33
2023-04-02T02:30:49.405Z,63.20
2023-04-02T02:33:53.237Z,63.35
2023-04-02T02:37:16.561Z,63.84
2023-04-02T02:40:29.417Z,63.84
2023-04-02T02:43:31.809Z,63.69
2023-04-02T02:46:34.487Z,64.60
2023-04-02T02:49:41.879Z,64.30
2023-04-02T02:52:46.676Z,64.05
2023-04-02T02:55:53.545Z,64.82
2023-04-02T02:59:00.416Z,64.46
2023-04-02T03:02:08.616Z,64.48
2023-04-02T03:05:20.630Z,64.06
2023-04-02T03:08:37.238Z,63.75
2023-04-02T03:12:08.694Z,63.70
2023-04-02T03:15:34.657Z,64.10
2023-04-02T03:18:58.289Z,63.72
2023-04-02T03:22:06.051Z,63.40
2023-04-02T03:25:24.795Z,64.18
2023-04-02T03:28:34.830Z,64.35
2023-04-02T03:32:07.862Z,64.54
2023-04-02T03:35:22.854Z,64.63
2023-04-02T03:38:34.854Z,64.53
2023-04-02T03:41:45.372Z,64.03
2023-04-02T03:45:11.969Z,64.25
2023-04-02T03:48:18.403Z,64.48
2023-04-02T03:51:32.938Z,64.22
2023-04-02T03:54:38.480Z,64.14
2023-04-02T03:57:52.245Z,64.71
2023-04-02T04:01:06.166Z,64.80
2023-04-02T04:04:17.344Z,64.96
2023-04-02T04:07:40.458Z,64.73
2023-04-02T04:10:43.053Z,65.23
2023-04-02T04:14:09.613Z,65.18
2023-04-02T04:17:24.926Z,65.62
2023-04-02T04:20:36.581Z,65.25
2023-04-02T04:23:41.072Z,65.29
2023-04-02T04:26:57.771Z,65.94
2023-04-02T04:30:06.084Z,66.41
2023-04-02T04:33:16.332Z,66.58
2023-04-02T04:36:28.961Z,66.74
2023-04-02T04:39:58.186Z,66.19
2023-04-02T04:43:06.406Z,66.44
2023-04-02T04:46:13.017Z,66.09
2023-04-02T04:49:35.367Z,66.93
2023-04-02T04:52:39.872Z,66.65
2023-04-02T04:55:47.369Z,66.46
2023-04-02T04:59:07.425Z,66.27
2023-04-02T05:02:41.256Z,65.84
2023-04-02T05:05:43.957Z,66.22
2023-04-02T05:08:48.692Z,65.19
2023-04-02T05:12:16.345Z,65.02
2023-04-02T05:15:32.677Z,64.66
2023-04-02T05:18:46.060Z,64.45
2023-04-02T05:22:41.404Z,64.44
2023-04-02T05:25:55.352Z,63.72
2023-04-02T05:29:19.990Z,63.25
2023-04-02T05:32:30.461Z,62.91
2023-04-02T05:35:35.969Z,63.57
2023-04-02T05:38:40.768Z,62.91
2023-04-02T05:41:46.063Z,61.75
2023-04-02T05:45:13.612Z,61.70
2023-04-02T05:48:19.017Z,62.20
2023-04-02T05:51:24.891Z,60.85
2023-04-02T05:54:31.581Z,60.27
2023-04-02T05:57:43.850Z,59.51
2023-04-02T06:00:53.633Z,60.77
2023-04-02T06:04:18.672Z,58.86
2023-04-02T06:07:22.254Z,57.57
2023-04-02T06:10:36.964Z,58.06
2023-04-02T06:13:39.666Z,58.00
2023-04-02T06:16:46.824Z,56.60
2023-04-02T06:19:49.446Z,55.96
2023-04-02T06:22:57.198Z,56.16
2023-04-02T06:26:27.158Z,55.82
2023-04-02T06:29:41.421Z,55.59
2023-04-02T06:32:48.985Z,54.39
2023-04-02T06:35:52.524Z,54.43
2023-04-02T06:39:08.481Z,53.37
2023-04-02T06:42:26.722Z,53.64
2023-04-02T06:45:47.262Z,53.32
2023-04-02T06:49:17.831Z,52.21
2023-04-02T06:52:28.665Z,53.06
2023-04-02T06:55:53.609Z,53.80
2023-04-02T06:59:00.743Z,51.63
2023-04-02T07:02:22.649Z,50.47
2023-04-02T07:05:25.538Z,49.73
2023-04-02T07:08:29.596Z,50.57
2023-04-02T07:11:32.287Z,50.25
2023-04-02T07:14:37.944Z,49.59
2023-04-02T07:17:40.807Z,49.20
2023-04-02T07:20:44.264Z,50.67
2023-04-02T07:23:49.355Z,49.41
2023-04-02T07:26:52.140Z,50.01
2023-04-02T07:29:55.075Z,49.25
2023-04-02T07:32:57.540Z,49.68
2023-04-02T07:36:00.016Z,49.14
2023-04-02T07:39:02.883Z,50.09
2023-04-02T07:42:05.563Z,49.98
2023-04-02T07:45:08.672Z,50.15
2023-04-02T07:48:12.668Z,49.28
2023-04-02T07:51:26.169Z,48.36
2023-04-02T07:54:28.757Z,50.23
2023-04-02T07:57:31.433Z,49.23
2023-04-02T08:00:33.957Z,50.00
2023-04-02T08:03:36.858Z,47.53
2023-04-02T08:06:39.721Z,48.36
2023-04-02T08:09:42.188Z,46.50
2023-04-02T08:12:45.037Z,46.74
2023-04-02T08:15:47.525Z,47.04
2023-04-02T08:18:50.566Z,47.04
2023-04-02T08:21:54.468Z,46.51
2023-04-02T08:24:57.213Z,47.11
2023-04-02T08:28:01.569Z,46.95
2023-04-02T08:31:05.364Z,47.34
2023-04-02T08:34:08.117Z,46.90
2023-04-02T08:37:13.474Z,47.81
2023-04-02T08:40:24.920Z,45.64
2023-04-02T08:43:51.112Z,46.97
2023-04-02T08:46:56.946Z,44.90
2023-04-02T08:50:01.741Z,46.41
2023-04-02T08:53:06.508Z,46.68
2023-04-02T08:56:09.907Z,44.64
2023-04-02T08:59:21.352Z,45.01
2023-04-02T09:02:36.087Z,46.65
2023-04-02T09:05:41.168Z,40.86
2023-04-02T09:08:44.819Z,41.71
2023-04-02T09:11:53.336Z,41.85
2023-04-02T09:15:11.223Z,40.71
2023-04-02T09:18:17.731Z,41.24
2023-04-02T09:21:29.260Z,39.84
2023-04-02T09:24:31.836Z,39.57
2023-04-02T09:27:36.016Z,39.79
2023-04-02T09:30:38.348Z,40.84
2023-04-02T09:33:49.035Z,41.36
2023-04-02T09:36:52.154Z,40.99
2023-04-02T09:39:54.347Z,42.25
2023-04-02T09:43:19.943Z,43.93
2023-04-02T09:46:26.047Z,42.73
2023-04-02T09:49:33.614Z,43.34
2023-04-02T09:52:36.472Z,42.82
2023-04-02T09:55:38.670Z,44.40
2023-04-02T09:58:42.014Z,43.07
2023-04-02T10:01:54.102Z,44.17
2023-04-02T10:04:56.787Z,43.82
2023-04-02T10:08:25.449Z,43.18
2023-04-02T10:11:43.597Z,43.20
2023-04-02T10:14:48.474Z,42.98
2023-04-02T10:17:57.914Z,42.80
2023-04-02T10:21:01.444Z,41.42
2023-04-02T10:24:17.821Z,41.03
2023-04-02T10:27:32.012Z,40.88
2023-04-02T10:31:01.671Z,39.44
2023-04-02T10:34:07.577Z,38.74
2023-04-02T10:37:48.959Z,39.44
2023-04-02T10:40:59.637Z,39.92
2023-04-02T10:44:24.240Z,38.18
2023-04-02T10:47:41.396Z,37.55
2023-04-02T10:51:01.804Z,35.03
2023-04-02T10:54:13.502Z,37.55
2023-04-02T10:57:18.981Z,37.15
2023-04-02T11:00:27.949Z,35.88
2023-04-02T11:03:37.498Z,36.60
2023-04-02T11:07:07.054Z,35.80
2023-04-02T11:10:16.482Z,35.86
2023-04-02T11:13:28.901Z,38.04
2023-04-02T11:16:31.516Z,37.61
2023-04-02T11:19:34.044Z,36.15
2023-04-02T11:22:36.365Z,34.58
2023-04-02T11:25:38.992Z,33.12
2023-04-02T11:28:41.417Z,31.24
2023-04-02T11:31:44.144Z,29.09
2023-04-02T11:35:03.091Z,28.12
2023-04-02T11:38:10.762Z,25.43
2023-04-02T11:41:13.163Z,24.60
2023-04-02T11:44:25.352Z,24.91
2023-04-02T11:47:28.684Z,28.28
2023-04-02T11:50:34.632Z,33.49
2023-04-02T11:53:37.171Z,36.53
2023-04-02T11:56:53.328Z,38.68
2023-04-02T12:00:18.579Z,39.25
2023-04-02T12:03:53.084Z,35.77
2023-04-02T12:07:07.565Z,31.69
2023-04-02T12:10:18.373Z,28.85
2023-04-02T12:13:41.802Z,27.25
2023-04-02T12:16:44.434Z,24.65
2023-04-02T12:19:55.466Z,24.66
2023-04-02T12:22:58.192Z,24.46
2023-04-02T12:26:02.389Z,24.68
2023-04-02T12:29:24.910Z,23.09
2023-04-02T12:32:29.939Z,22.60
2023-04-02T12:35:34.323Z,21.87
2023-04-02T12:38:47.103Z,20.80
2023-04-02T12:41:49.821Z,20.07
2023-04-02T12:44:52.226Z,20.20
2023-04-02T12:47:54.956Z,19.84
2023-04-02T12:50:57.901Z,20.17
2023-04-02T12:54:00.595Z,20.06
2023-04-02T12:57:27.731Z,21.45
2023-04-02T13:00:30.689Z,21.05
2023-04-02T13:03:36.503Z,21.45
2023-04-02T13:06:39.719Z,21.12
2023-04-02T13:09:46.176Z,25.20
2023-04-02T13:12:49.062Z,27.97
2023-04-02T13:16:04.112Z,30.75
2023-04-02T13:19:10.818Z,33.05
2023-04-02T13:22:30.836Z,35.32
2023-04-02T13:25:35.997Z,36.57
2023-04-02T13:28:38.667Z,32.68
2023-04-02T13:31:41.632Z,30.19
2023-04-02T13:34:44.065Z,26.87
2023-04-02T13:37:46.570Z,25.59
2023-04-02T13:40:49.213Z,27.18
2023-04-02T13:43:51.582Z,31.17
2023-04-02T13:46:54.663Z,33.20
2023-04-02T13:49:57.192Z,35.68
2023-04-02T13:53:04.604Z,35.76
2023-04-02T13:56:08.518Z,36.92
2023-04-02T13:59:11.061Z,36.92
2023-04-02T14:02:18.094Z,37.96
2023-04-02T14:05:38.889Z,37.53
2023-04-02T14:09:13.683Z,36.42
2023-04-02T14:12:31.492Z,34.45
2023-04-02T14:15:58.931Z,30.61
2023-04-02T14:19:07.629Z,27.83
2023-04-02T14:22:42.418Z,27.56
2023-04-02T14:26:02.200Z,26.56
2023-04-02T14:29:17.304Z,27.66
2023-04-02T14:32:24.646Z,28.09
2023-04-02T14:35:43.033Z,29.50
2023-04-02T14:38:48.367Z,28.66
2023-04-02T14:41:59.312Z,31.11
2023-04-02T14:45:28.349Z,33.15
2023-04-02T14:48:31.119Z,34.39
2023-04-02T14:51:41.672Z,37.40
2023-04-02T14:54:50.291Z,38.73
2023-04-02T14:57:53.679Z,39.93
2023-04-02T15:01:20.777Z,40.05
2023-04-02T15:04:39.320Z,41.12
2023-04-02T15:08:01.183Z,42.37
2023-04-02T15:11:18.048Z,43.91
2023-04-02T15:14:29.558Z,43.95
2023-04-02T15:17:33.228Z,45.54
2023-04-02T15:20:57.266Z,46.40
2023-04-02T15:24:48.911Z,48.96
2023-04-02T15:28:12.610Z,49.56
2023-04-02T15:31:15.381Z,50.96
2023-04-02T15:34:20.875Z,51.21
2023-04-02T15:37:43.213Z,53.01
2023-04-02T15:40:45.784Z,56.46
2023-04-02T15:43:55.874Z,55.27
2023-04-02T15:47:34.419Z,55.77
2023-04-02T15:50:44.856Z,57.37
2023-04-02T15:53:59.740Z,59.27
2023-04-02T15:57:27.860Z,60.45
2023-04-02T16:00:54.964Z,62.43
2023-04-02T16:04:19.651Z,64.65
2023-04-02T16:07:32.481Z,65.23
2023-04-02T16:10:41.978Z,65.81
2023-04-02T16:13:45.698Z,64.87
2023-04-02T16:16:49.191Z,66.17
2023-04-02T16:19:53.431Z,65.97
2023-04-02T16:23:05.717Z,63.74
2023-04-02T16:26:20.235Z,65.09
2023-04-02T16:29:40.754Z,64.22
2023-04-02T16:33:01.792Z,64.89
2023-04-02T16:36:31.423Z,62.37
2023-04-02T16:39:42.072Z,64.83
2023-04-02T16:43:14.016Z,63.75
2023-04-02T16:46:55.729Z,65.04
2023-04-02T16:50:16.430Z,65.02
2023-04-02T16:53:27.687Z,65.67
2023-04-02T16:56:39.652Z,66.09
2023-04-02T16:59:45.112Z,66.10
2023-04-02T17:03:15.096Z,66.05
2023-04-02T17:06:26.612Z,66.23
2023-04-02T17:09:39.893Z,64.79
2023-04-02T17:12:47.043Z,64.02
2023-04-02T17:16:14.559Z,64.64
2023-04-02T17:19:17.327Z,64.82
2023-04-02T17:22:21.723Z,66.48
2023-04-02T17:25:30.780Z,66.67
2023-04-02T17:28:39.288Z,66.94
2023-04-02T17:31:42.801Z,67.21
2023-04-02T17:34:45.855Z,67.57
2023-04-02T17:38:15.087Z,67.74
2023-04-02T17:41:38.665Z,65.79
2023-04-02T17:44:47.129Z,59.49
2023-04-02T17:47:56.411Z,60.62
2023-04-02T17:51:30.373Z,57.57
2023-04-02T17:54:42.767Z,57.28
2023-04-02T17:58:01.331Z,57.23
2023-04-02T18:01:06.997Z,56.89
2023-04-02T18:04:22.221Z,57.52
2023-04-02T18:07:43.344Z,56.00
2023-04-02T18:11:05.229Z,56.13
2023-04-02T18:14:37.846Z,56.18
2023-04-02T18:17:53.482Z,56.73
2023-04-02T18:21:26.695Z,57.04
2023-04-02T18:24:46.513Z,56.27
2023-04-02T18:28:16.472Z,56.64
2023-04-02T18:31:33.625Z,57.05
2023-04-02T18:34:48.155Z,55.88
2023-04-02T18:38:28.284Z,54.72
2023-04-02T18:41:49.181Z,55.23
2023-04-02T18:45:10.824Z,55.47
2023-04-02T18:48:28.967Z,55.46
2023-04-02T18:51:34.649Z,54.94
2023-04-02T18:54:52.960Z,54.89
2023-04-02T18:58:21.545Z,56.05
2023-04-02T19:01:33.519Z,55.65
2023-04-02T19:04:36.298Z,55.66
2023-04-02T19:07:39.346Z,54.47
2023-04-02T19:10:46.507Z,55.00
2023-04-02T19:13:51.421Z,55.82
2023-04-02T19:17:15.064Z,55.09
2023-04-02T19:20:44.186Z,54.94
2023-04-02T19:24:03.050Z,56.06
2023-04-02T19:27:28.451Z,57.35
2023-04-02T19:30:59.410Z,56.12
2023-04-02T19:34:46.944Z,56.78
2023-04-02T19:38:10.703Z,57.15
2023-04-02T19:41:36.073Z,56.73
2023-04-02T19:44:39.878Z,55.94
2023-04-02T19:47:42.470Z,55.81
2023-04-02T19:50:45.608Z,56.22
2023-04-02T19:53:47.983Z,55.89
2023-04-02T19:56:50.511Z,55.59
2023-04-02T19:59:53.002Z,55.93
2023-04-02T20:02:55.445Z,55.59
2023-04-02T20:06:10.057Z,56.04
2023-04-02T20:09:12.480Z,55.85
2023-04-02T20:12:14.913Z,56.40
2023-04-02T20:15:17.399Z,55.98
2023-04-02T20:18:20.569Z,55.53
2023-04-02T20:21:23.036Z,55.15
2023-04-02T20:24:25.963Z,55.75
2023-04-02T20:27:28.428Z,56.01
2023-04-02T20:30:32.513Z,56.34
2023-04-02T20:33:35.787Z,56.31
2023-04-02T20:36:38.272Z,56.50
2023-04-02T20:39:41.010Z,56.27
2023-04-02T20:42:43.471Z,57.08
2023-04-02T20:45:59.266Z,56.67
2023-04-02T20:49:02.392Z,57.98
2023-04-02T20:52:05.248Z,57.36
2023-04-02T20:55:08.744Z,58.63
2023-04-02T20:58:11.324Z,58.97
2023-04-02T21:01:24.049Z,59.82
2023-04-02T21:04:27.949Z,59.41
2023-04-02T21:07:30.576Z,59.20
2023-04-02T21:10:32.944Z,59.94
2023-04-02T21:13:36.764Z,59.52
2023-04-02T21:16:40.524Z,58.95
2023-04-02T21:19:43.969Z,58.82
2023-04-02T21:22:46.501Z,59.15
2023-04-02T21:25:59.598Z,57.15
2023-04-02T21:29:02.245Z,58.30
2023-04-02T21:32:14.485Z,57.08
2023-04-02T21:35:23.754Z,57.44
2023-04-02T21:38:26.529Z,57.30
2023-04-02T21:41:31.256Z,58.33
2023-04-02T21:44:33.755Z,58.80
2023-04-02T21:47:36.292Z,59.36
2023-04-02T21:50:38.748Z,59.73
2023-04-02T21:53:41.443Z,60.44
2023-04-02T21:56:44.841Z,61.72
2023-04-02T21:59:47.304Z,62.67
2023-04-02T22:02:49.833Z,64.20
2023-04-02T22:06:09.546Z,66.47
2023-04-02T22:09:16.797Z,67.45
2023-04-02T22:12:19.207Z,68.88
2023-04-02T22:15:21.737Z,68.86
2023-04-02T22:18:24.210Z,70.43
2023-04-02T22:21:26.723Z,70.52
2023-04-02T22:24:29.233Z,70.98
2023-04-02T22:27:31.635Z,70.56
2023-04-02T22:30:34.448Z,70.26
2023-04-02T22:33:37.323Z,70.64
2023-04-02T22:36:39.807Z,71.37
2023-04-02T22:39:42.186Z,70.04
2023-04-02T22:42:44.631Z,70.08
2023-04-02T22:45:50.069Z,70.81
2023-04-02T22:48:53.586Z,69.46
2023-04-02T22:51:56.012Z,66.13
2023-04-02T22:54:58.465Z,63.89
2023-04-02T22:58:00.836Z,62.03
2023-04-02T23:01:33.128Z,61.92
2023-04-02T23:04:36.405Z,63.17
2023-04-02T23:07:38.830Z,62.85
2023-04-02T23:10:41.355Z,60.00
2023-04-02T23:13:43.908Z,60.92
2023-04-02T23:16:46.406Z,59.59
2023-04-02T23:19:48.852Z,59.19
2023-04-02T23:22:51.375Z,57.53
2023-04-02T23:26:14.369Z,57.06
2023-04-02T23:29:16.744Z,56.97
2023-04-02T23:32:19.735Z,57.07
2023-04-02T23:35:22.154Z,57.82
2023-04-02T23:38:25.659Z,58.28
2023-04-02T23:41:28.440Z,58.00
2023-04-02T23:44:31.071Z,57.35
2023-04-02T23:47:33.635Z,59.17
2023-04-02T23:50:36.266Z,58.27
2023-04-02T23:53:39.148Z,56.26
2023-04-02T23:56:41.743Z,57.79
2023-04-02T23:59:44.108Z,56.76
